CheckWX is a tool to help pilots better visualize weather data.  It is not intended as a substitute for an official pre-flight weather briefing.

20:02:47 UTC

TJIG METAR
Fernando Luis Ribas Dominicci Airport
San Juan, Puerto Rico, USA
Current

13 mins ago

TJIG 161950Z 10015G20KT 9SM SCT020 SCT035 BKN060 27/21 A2998
Observed
Feb-16 @ 19:50 UTC
Wind
  • 100° at 15 KTS
  • Gusting to 20 KTS
Visibility
9 SM
Flight Rules
VFR
Cloud Levels
  • Scattered at 2,000' AGL
  • Scattered at 3,500' AGL
  • Broken at 6,000' AGL
Temperature
27°C / 81°F
Dewpoint
21°C / 70°F
Heat Index
29°C / 85°F
Humidity
70%
Altimeter
29.98" Hg
Pressure
1015.22 hPa
Previous

1 hour ago

TJIG 161852Z 10015G21KT 9SM SCT020 SCT035 BKN060 27/22 A2999
Observed
Feb-16 @ 18:52 UTC
Wind
  • 100° at 15 KTS
  • Gusting to 21 KTS
Visibility
9 SM
Flight Rules
VFR
Cloud Levels
  • Scattered at 2,000' AGL
  • Scattered at 3,500' AGL
  • Broken at 6,000' AGL
Temperature
27°C / 81°F
Dewpoint
22°C / 72°F
Heat Index
29°C / 85°F
Humidity
74%
Altimeter
29.99" Hg
Pressure
1015.62 hPa
Previous

2 hours ago

TJIG 161746Z 10015KT 8SM SCT020 SCT035 BKN060 27/22 A3002
Observed
Feb-16 @ 17:46 UTC
Wind
  • 100° at 15 KTS
Visibility
8 SM
Flight Rules
VFR
Cloud Levels
  • Scattered at 2,000' AGL
  • Scattered at 3,500' AGL
  • Broken at 6,000' AGL
Temperature
27°C / 81°F
Dewpoint
22°C / 72°F
Heat Index
29°C / 85°F
Humidity
74%
Altimeter
30.02" Hg
Pressure
1016.62 hPa